Time;durP1;ratioP1;P1;durP2;ratioP2;P2;SDS_P1;SDS_P2;PMS_P1;PMS_P2;Temp;Humidity;BMP_temperature;BMP_pressure;BME280_temperature;BME280_humidity;BME280_pressure;Samples;Min_cycle;Max_cycle;Signal;HPM_P1;HPM_P2
2021/06/01 00:01:22;;;;;;;12.85;9.35;;;333.40;2329.60;;;;;;5090379;28;20040;-79
2021/06/01 00:03:48;;;;;;;11.90;8.80;;;333.40;2329.60;;;;;;5090070;28;20024;-78
2021/06/01 00:06:14;;;;;;;11.20;7.70;;;333.30;2329.60;;;;;;5081072;28;20044;-78
2021/06/01 00:08:40;;;;;;;13.82;9.00;;;333.30;2329.60;;;;;;5088035;28;20032;-77
2021/06/01 00:11:07;;;;;;;15.85;9.50;;;333.30;2329.60;;;;;;5088052;28;20023;-78
2021/06/01 00:13:34;;;;;;;10.55;7.90;;;333.30;2329.60;;;;;;5090613;28;20097;-78
2021/06/01 00:16:00;;;;;;;13.93;9.45;;;333.30;2329.60;;;;;;5079967;28;20390;-78
2021/06/01 00:18:27;;;;;;;13.60;9.68;;;333.30;2329.60;;;;;;5090872;28;20016;-78
2021/06/01 00:20:54;;;;;;;17.45;9.32;;;333.30;2329.60;;;;;;5089632;28;20032;-78
2021/06/01 00:23:20;;;;;;;10.65;7.43;;;333.30;2329.60;;;;;;5089225;28;20027;-80
2021/06/01 00:25:45;;;;;;;9.38;5.90;;;333.30;2329.60;;;;;;5078657;28;20029;-78
2021/06/01 00:28:11;;;;;;;10.85;5.30;;;333.30;2329.60;;;;;;5093524;28;20024;-78
2021/06/01 00:30:37;;;;;;;7.47;4.93;;;333.30;2329.60;;;;;;5083338;28;20024;-79
2021/06/01 00:33:03;;;;;;;6.30;4.68;;;333.30;2329.60;;;;;;5083197;28;20469;-81
2021/06/01 00:35:29;;;;;;;6.93;5.07;;;333.30;2329.60;;;;;;5082588;28;20028;-79
2021/06/01 00:37:54;;;;;;;5.82;4.15;;;333.30;2329.60;;;;;;5080789;28;20081;-79
2021/06/01 00:40:20;;;;;;;6.50;4.78;;;333.30;2329.60;;;;;;5098441;28;20032;-79
2021/06/01 00:42:46;;;;;;;9.82;6.50;;;333.30;2329.60;;;;;;5097822;28;20025;-80
2021/06/01 00:45:18;;;;;;;11.38;6.68;;;333.30;2329.60;;;;;;5088872;28;20103;-80
2021/06/01 00:47:44;;;;;;;11.20;7.50;;;333.30;2329.60;;;;;;5092924;28;20032;-80
2021/06/01 00:50:11;;;;;;;10.55;7.60;;;333.20;2329.60;;;;;;5092867;28;20524;-79
2021/06/01 00:52:37;;;;;;;12.40;8.38;;;333.10;2329.60;;;;;;5092683;28;20115;-78
2021/06/01 00:55:07;;;;;;;14.73;8.35;;;333.10;2329.60;;;;;;5094320;28;20266;-78
2021/06/01 00:57:34;;;;;;;10.82;5.82;;;333.10;2329.60;;;;;;5091447;28;20514;-78
2021/06/01 01:00:00;;;;;;;17.58;7.40;;;333.10;2329.60;;;;;;5081602;28;20029;-78
2021/06/01 01:02:27;;;;;;;7.45;5.20;;;333.10;2329.60;;;;;;5075486;28;20032;-80
2021/06/01 01:04:54;;;;;;;6.25;4.65;;;333.10;2329.60;;;;;;5087384;28;20019;-79
2021/06/01 01:07:47;;;;;;;7.10;4.88;;;333.00;2329.60;;;;;;5088540;28;20048;-79
2021/06/01 01:10:14;;;;;;;7.88;4.15;;;333.00;2329.60;;;;;;5081800;28;20457;-78
2021/06/01 01:12:51;;;;;;;6.32;4.15;;;333.00;2329.60;;;;;;5093636;28;20388;-79
2021/06/01 01:15:20;;;;;;;9.82;3.80;;;333.00;2329.60;;;;;;5085603;28;20020;-80
2021/06/01 01:17:48;;;;;;;8.07;4.68;;;333.00;2329.60;;;;;;5079386;28;20672;-79
2021/06/01 01:20:35;;;;;;;5.53;4.18;;;333.00;2329.60;;;;;;5093579;28;20032;-78
2021/06/01 01:23:13;;;;;;;6.97;4.22;;;333.00;2329.60;;;;;;5088941;28;20024;-79
2021/06/01 01:25:42;;;;;;;9.50;4.40;;;333.00;2329.60;;;;;;5076045;28;20015;-79
2021/06/01 01:28:38;;;;;;;6.32;3.95;;;333.00;2329.60;;;;;;5075169;28;20031;-79
2021/06/01 01:31:13;;;;;;;7.38;4.35;;;332.90;2329.60;;;;;;5078704;28;20056;-79
2021/06/01 01:33:42;;;;;;;6.70;3.72;;;332.90;2329.60;;;;;;5078235;28;20128;-78
2021/06/01 01:36:12;;;;;;;5.80;4.00;;;332.90;2329.60;;;;;;5091864;28;20028;-78
2021/06/01 01:38:42;;;;;;;5.25;3.58;;;332.90;2329.60;;;;;;5071778;28;20124;-78
2021/06/01 01:41:15;;;;;;;6.32;3.83;;;332.90;2329.60;;;;;;5092678;28;20032;-78
2021/06/01 01:43:44;;;;;;;5.63;3.40;;;332.90;2329.60;;;;;;5072549;28;20016;-78
2021/06/01 01:46:23;;;;;;;5.10;3.78;;;333.00;2329.60;;;;;;5083303;28;20028;-78
2021/06/01 01:48:59;;;;;;;5.85;4.00;;;333.00;2329.60;;;;;;5092125;28;20044;-80
2021/06/01 01:51:47;;;;;;;6.65;4.78;;;333.00;2329.60;;;;;;5091724;28;20026;-79
2021/06/01 01:54:24;;;;;;;7.38;5.75;;;333.00;2329.60;;;;;;5071080;28;20485;-79
2021/06/01 01:56:54;;;;;;;10.32;7.22;;;333.00;2329.60;;;;;;5071501;28;20477;-79
2021/06/01 01:59:23;;;;;;;13.73;8.68;;;333.00;2329.60;;;;;;5085432;28;20099;-80
2021/06/01 02:01:51;;;;;;;12.10;8.50;;;332.90;2329.60;;;;;;5092636;28;20024;-79
2021/06/01 02:04:29;;;;;;;14.52;8.50;;;332.90;2329.60;;;;;;5093235;28;20381;-79
2021/06/01 02:06:57;;;;;;;14.73;7.30;;;332.90;2329.60;;;;;;5090970;28;20040;-79
2021/06/01 02:09:23;;;;;;;11.02;7.55;;;332.90;2329.60;;;;;;5078974;28;20424;-80
2021/06/01 02:11:49;;;;;;;10.02;7.65;;;332.80;2329.60;;;;;;5091012;28;20024;-80
2021/06/01 02:14:16;;;;;;;12.40;8.32;;;332.80;2329.60;;;;;;5091039;28;20035;-80
2021/06/01 02:16:42;;;;;;;13.70;8.98;;;332.80;2329.60;;;;;;5091256;28;20116;-80
2021/06/01 02:19:12;;;;;;;17.02;8.40;;;332.80;2329.60;;;;;;5092119;28;20436;-78
2021/06/01 02:24:31;;;;;;;17.20;7.18;;;332.80;2329.60;;;;;;5082100;28;20020;-78
2021/06/01 02:27:02;;;;;;;15.32;8.40;;;308.10;2304.00;;;;;;5080751;28;20051;-78
2021/06/01 02:30:08;;;;;;;14.18;8.55;;;308.10;2304.00;;;;;;5077325;28;20055;-78
2021/06/01 02:32:36;;;;;;;17.02;9.57;;;308.10;2304.00;;;;;;5071565;28;20068;-78
2021/06/01 02:35:10;;;;;;;16.23;10.35;;;308.00;2304.00;;;;;;5070608;28;20032;-77
2021/06/01 02:37:38;;;;;;;16.25;10.57;;;308.10;2304.00;;;;;;5070483;28;20055;-79
2021/06/01 02:40:06;;;;;;;15.27;9.25;;;308.00;2304.00;;;;;;5083484;28;20086;-78
2021/06/01 02:42:32;;;;;;;20.25;10.65;;;308.00;2304.00;;;;;;5071668;28;20108;-78
2021/06/01 02:44:58;;;;;;;12.05;8.65;;;308.00;2304.00;;;;;;5087663;28;20443;-78
2021/06/01 02:47:23;;;;;;;11.80;8.35;;;308.00;2304.00;;;;;;5091815;28;20028;-77
2021/06/01 02:49:50;;;;;;;11.77;7.28;;;307.90;2304.00;;;;;;5091519;28;20507;-77
2021/06/01 02:52:17;;;;;;;7.97;6.38;;;307.90;2304.00;;;;;;5082671;28;20028;-80
2021/06/01 02:54:43;;;;;;;8.65;5.43;;;307.90;2304.00;;;;;;5082340;28;20036;-78
2021/06/01 02:57:10;;;;;;;7.43;5.60;;;307.90;2304.00;;;;;;5091741;28;20116;-78
2021/06/01 02:59:38;;;;;;;7.70;4.43;;;307.80;2304.00;;;;;;5090636;28;20027;-79
2021/06/01 03:02:05;;;;;;;6.60;4.90;;;307.90;2304.00;;;;;;5090408;28;20430;-80
2021/06/01 03:04:31;;;;;;;6.50;4.55;;;307.80;2304.00;;;;;;5096416;28;20027;-78
2021/06/01 03:06:58;;;;;;;5.22;4.65;;;307.80;2304.00;;;;;;5089999;28;20047;-78
2021/06/01 03:09:23;;;;;;;7.05;4.35;;;307.80;2304.00;;;;;;5074100;28;20450;-79
2021/06/01 03:11:50;;;;;;;6.65;4.72;;;307.90;2304.00;;;;;;5086032;28;20020;-78
2021/06/01 03:14:16;;;;;;;7.22;4.47;;;307.80;2304.00;;;;;;5090186;28;20032;-78
2021/06/01 03:16:41;;;;;;;10.77;8.38;;;307.80;2304.00;;;;;;5090787;28;20020;-79
2021/06/01 03:19:07;;;;;;;15.95;10.70;;;307.90;2304.00;;;;;;5091334;28;20664;-79
2021/06/01 03:21:34;;;;;;;13.05;10.40;;;307.80;2304.00;;;;;;5090469;28;20020;-80
2021/06/01 03:24:00;;;;;;;10.90;8.23;;;307.80;2304.00;;;;;;5080422;28;20043;-79
2021/06/01 03:26:25;;;;;;;10.73;8.50;;;307.80;2304.00;;;;;;5087294;28;20376;-79
2021/06/01 03:28:51;;;;;;;12.20;7.78;;;307.80;2304.00;;;;;;5090084;28;20020;-79
2021/06/01 03:31:17;;;;;;;12.15;8.25;;;307.80;2304.00;;;;;;5089027;28;20111;-79
2021/06/01 03:33:43;;;;;;;10.75;7.78;;;307.80;2304.00;;;;;;5089887;28;20565;-80
2021/06/01 03:36:09;;;;;;;19.50;10.45;;;307.80;2304.00;;;;;;5088811;28;20032;-82
2021/06/01 03:38:36;;;;;;;17.95;10.55;;;307.80;2304.00;;;;;;5086532;28;20085;-81
2021/06/01 03:41:03;;;;;;;14.88;10.52;;;307.80;2304.00;;;;;;5091049;28;20024;-78
2021/06/01 03:43:29;;;;;;;20.52;10.98;;;307.90;2304.00;;;;;;5091377;28;20073;-78
2021/06/01 03:45:55;;;;;;;17.13;12.25;;;307.90;2304.00;;;;;;5090735;28;20024;-79
2021/06/01 03:48:21;;;;;;;22.23;11.10;;;307.90;2304.00;;;;;;5087048;28;20051;-79
2021/06/01 03:50:46;;;;;;;14.18;9.38;;;307.90;2304.00;;;;;;5092327;28;20103;-79
2021/06/01 03:53:12;;;;;;;12.88;8.45;;;307.90;2304.00;;;;;;5090286;28;20032;-79
2021/06/01 03:55:38;;;;;;;14.80;9.20;;;307.90;2304.00;;;;;;5089654;28;20179;-77
2021/06/01 03:58:03;;;;;;;12.27;8.18;;;307.90;2304.00;;;;;;5086526;28;20028;-77
2021/06/01 04:00:30;;;;;;;14.43;10.35;;;308.00;2304.00;;;;;;5086585;28;20025;-78
2021/06/01 04:02:57;;;;;;;11.65;7.82;;;308.00;2304.00;;;;;;5098054;28;20365;-78
2021/06/01 04:05:23;;;;;;;11.65;7.75;;;308.10;2304.00;;;;;;5093741;28;20032;-78
2021/06/01 04:07:49;;;;;;;8.32;5.43;;;308.10;2304.00;;;;;;5081846;28;20123;-78
2021/06/01 04:10:16;;;;;;;8.38;5.25;;;332.80;2329.60;;;;;;5085327;28;20103;-78
2021/06/01 04:12:42;;;;;;;7.72;5.82;;;332.80;2329.60;;;;;;5093456;28;20458;-77
2021/06/01 04:15:08;;;;;;;13.70;5.75;;;332.80;2329.60;;;;;;5093610;28;20480;-78
2021/06/01 04:17:34;;;;;;;8.23;5.85;;;332.80;2329.60;;;;;;5078110;28;20111;-77
2021/06/01 04:20:01;;;;;;;11.15;6.70;;;332.80;2329.60;;;;;;5073258;28;20043;-77
2021/06/01 04:22:26;;;;;;;8.98;5.60;;;332.90;2329.60;;;;;;5084935;28;20016;-78
2021/06/01 04:24:52;;;;;;;14.45;6.28;;;332.80;2329.60;;;;;;5090282;28;20468;-79
2021/06/01 04:27:18;;;;;;;12.93;7.20;;;332.80;2329.60;;;;;;5081496;28;20062;-79
2021/06/01 04:29:44;;;;;;;11.68;8.00;;;332.80;2329.60;;;;;;5087565;28;20073;-79
2021/06/01 04:32:09;;;;;;;11.18;7.50;;;332.80;2329.60;;;;;;5086450;28;20086;-78
2021/06/01 04:34:36;;;;;;;15.10;7.65;;;332.80;2329.60;;;;;;5085839;28;20021;-78
2021/06/01 04:37:02;;;;;;;10.32;7.57;;;332.80;2329.60;;;;;;5088376;28;20120;-78
2021/06/01 04:39:28;;;;;;;13.68;8.05;;;332.80;2329.60;;;;;;5085506;28;20510;-79
2021/06/01 04:41:54;;;;;;;11.07;7.25;;;332.80;2329.60;;;;;;5085372;28;20115;-78
2021/06/01 04:44:20;;;;;;;10.65;6.82;;;332.80;2329.60;;;;;;5085115;28;20105;-77
2021/06/01 04:46:46;;;;;;;12.18;6.63;;;332.90;2329.60;;;;;;5084334;28;20028;-77
2021/06/01 04:49:12;;;;;;;8.18;6.20;;;332.80;2329.60;;;;;;5086637;28;20418;-77
2021/06/01 04:51:37;;;;;;;8.25;6.45;;;332.80;2329.60;;;;;;5093898;28;20154;-77
2021/06/01 04:54:04;;;;;;;8.57;6.03;;;332.90;2329.60;;;;;;5079870;28;20027;-77
2021/06/01 04:56:30;;;;;;;10.15;7.57;;;333.00;2329.60;;;;;;5092533;28;20028;-77
2021/06/01 04:58:56;;;;;;;13.60;8.07;;;333.00;2329.60;;;;;;5085577;28;20093;-82
2021/06/01 05:01:25;;;;;;;11.15;8.05;;;333.00;2329.60;;;;;;5082382;28;20036;-76
2021/06/01 05:03:52;;;;;;;8.85;7.78;;;333.10;2329.60;;;;;;5086521;28;20746;-77
2021/06/01 05:06:18;;;;;;;16.63;7.78;;;333.10;2329.60;;;;;;5083770;28;20048;-76
2021/06/01 05:08:44;;;;;;;12.85;6.93;;;333.20;2329.60;;;;;;5084284;28;20098;-76
2021/06/01 05:11:10;;;;;;;10.77;5.72;;;333.30;2329.60;;;;;;5077545;28;20435;-77
2021/06/01 05:13:36;;;;;;;15.45;7.18;;;333.30;2329.60;;;;;;5089904;28;20027;-77
2021/06/01 05:16:01;;;;;;;7.80;6.30;;;333.30;2329.60;;;;;;5091240;28;20035;-76
2021/06/01 05:18:27;;;;;;;8.77;5.63;;;333.40;2329.60;;;;;;5087287;28;20417;-78
2021/06/01 05:20:53;;;;;;;7.53;5.95;;;333.50;2329.60;;;;;;5086469;28;20103;-76
2021/06/01 05:23:19;;;;;;;8.38;6.03;;;333.50;2329.60;;;;;;5093631;28;20488;-76
2021/06/01 05:25:44;;;;;;;11.27;6.53;;;333.70;2329.60;;;;;;5092345;28;20491;-76
2021/06/01 05:28:11;;;;;;;8.07;5.18;;;333.70;2329.60;;;;;;5091591;28;20106;-76
2021/06/01 05:30:41;;;;;;;7.25;5.00;;;333.70;2329.60;;;;;;5086614;28;20021;-78
2021/06/01 05:33:15;;;;;;;14.40;6.00;;;333.70;2329.60;;;;;;5087839;28;20077;-79
2021/06/01 05:35:53;;;;;;;7.15;5.13;;;358.50;2329.60;;;;;;5078683;28;20020;-77
2021/06/01 05:38:23;;;;;;;6.95;5.10;;;358.50;2329.60;;;;;;5076903;28;20107;-77
2021/06/01 05:40:49;;;;;;;8.77;5.30;;;358.70;2329.60;;;;;;5077074;28;20032;-78
2021/06/01 05:43:15;;;;;;;6.63;5.30;;;358.70;2329.60;;;;;;5078835;28;20488;-78
2021/06/01 05:45:41;;;;;;;7.28;5.78;;;358.70;2329.60;;;;;;5072489;28;20024;-79
2021/06/01 05:48:09;;;;;;;8.90;5.80;;;358.70;2329.60;;;;;;5080201;28;20061;-77
2021/06/01 05:50:35;;;;;;;6.32;4.80;;;358.80;2329.60;;;;;;5077418;28;20492;-77
2021/06/01 05:53:02;;;;;;;11.05;5.57;;;358.90;2329.60;;;;;;5081890;28;20036;-78
2021/06/01 05:55:29;;;;;;;7.03;4.70;;;359.10;2329.60;;;;;;5089432;28;20020;-78
2021/06/01 05:57:54;;;;;;;7.93;5.88;;;359.10;2329.60;;;;;;5077166;28;20029;-77
2021/06/01 06:00:22;;;;;;;6.45;4.97;;;359.30;2329.60;;;;;;5088381;28;20028;-77
2021/06/01 06:02:48;;;;;;;8.48;5.40;;;359.30;2329.60;;;;;;5083930;28;20025;-77
2021/06/01 06:05:14;;;;;;;7.63;4.90;;;384.00;2329.60;;;;;;5090305;28;20035;-77
2021/06/01 06:07:40;;;;;;;6.53;4.50;;;384.10;2329.60;;;;;;5088363;28;20056;-77
2021/06/01 06:10:09;;;;;;;10.60;5.00;;;384.10;2329.60;;;;;;5093345;28;20051;-77
2021/06/01 06:12:35;;;;;;;8.55;4.78;;;384.10;2329.60;;;;;;5088926;28;20024;-78
2021/06/01 06:15:02;;;;;;;8.07;4.95;;;384.10;2329.60;;;;;;5087972;28;20078;-77
2021/06/01 06:18:13;;;;;;;6.82;5.72;;;384.00;2329.60;;;;;;5083454;28;20454;-77
2021/06/01 06:20:39;;;;;;;7.68;5.22;;;384.10;2329.60;;;;;;5086383;28;20024;-78
2021/06/01 06:23:05;;;;;;;9.20;4.55;;;384.20;2329.60;;;;;;5083661;28;20365;-78
2021/06/01 06:25:30;;;;;;;7.00;4.90;;;384.40;2329.60;;;;;;5085340;28;20426;-78
2021/06/01 06:27:56;;;;;;;7.20;4.50;;;384.60;2329.60;;;;;;5081374;28;20021;-77
2021/06/01 06:30:23;;;;;;;7.10;4.80;;;384.60;2329.60;;;;;;5086344;28;20381;-78
2021/06/01 06:32:50;;;;;;;11.02;4.88;;;409.60;2355.20;;;;;;5096142;28;20018;-79
2021/06/01 06:35:17;;;;;;;9.68;5.18;;;409.90;2355.20;;;;;;5113099;28;20035;-79
2021/06/01 06:37:43;;;;;;;6.00;4.55;;;410.30;2355.20;;;;;;5110906;28;20035;-78
2021/06/01 06:40:10;;;;;;;8.70;4.30;;;410.50;2355.20;;;;;;5105819;28;20486;-79
2021/06/01 06:42:37;;;;;;;7.22;4.95;;;435.20;2355.20;;;;;;5108456;28;20019;-79
2021/06/01 06:45:06;;;;;;;8.13;5.28;;;435.40;2355.20;;;;;;5086891;28;20103;-79
2021/06/01 06:47:55;;;;;;;9.30;5.05;;;435.80;2355.20;;;;;;5099137;28;20107;-77
2021/06/01 06:50:23;;;;;;;5.63;4.32;;;436.00;2355.20;;;;;;5082074;28;20024;-80
2021/06/01 06:52:49;;;;;;;9.55;4.60;;;435.80;2355.20;;;;;;5082160;28;20020;-77
2021/06/01 06:55:16;;;;;;;6.35;4.50;;;435.90;2355.20;;;;;;5080892;28;20127;-76
2021/06/01 06:57:42;;;;;;;5.82;4.75;;;461.00;2380.80;;;;;;5076484;28;20054;-78
2021/06/01 07:00:11;;;;;;;8.05;4.13;;;461.40;2380.80;;;;;;5083739;28;20443;-80
2021/06/01 07:02:38;;;;;;;7.07;4.72;;;461.50;2380.80;;;;;;5083686;28;20363;-78
2021/06/01 07:05:05;;;;;;;5.82;5.00;;;486.40;2380.80;;;;;;5093163;28;20028;-78
2021/06/01 07:07:31;;;;;;;8.65;4.68;;;486.50;2380.80;;;;;;5094309;28;20488;-77
2021/06/01 07:09:57;;;;;;;6.97;5.43;;;461.50;2380.80;;;;;;5079720;28;20039;-83
2021/06/01 07:12:24;;;;;;;9.25;4.85;;;461.50;2380.80;;;;;;5081296;28;20052;-77
2021/06/01 07:14:56;;;;;;;5.68;4.25;;;461.30;2380.80;;;;;;5088980;28;20026;-78
2021/06/01 07:17:23;;;;;;;6.93;5.20;;;461.30;2380.80;;;;;;5087190;28;20028;-77
2021/06/01 07:19:53;;;;;;;7.45;5.25;;;461.30;2380.80;;;;;;5083057;28;20077;-77
2021/06/01 07:22:19;;;;;;;9.60;4.60;;;461.70;2329.60;;;;;;5081660;28;20050;-78
2021/06/01 07:24:45;;;;;;;6.05;4.45;;;486.50;2278.40;;;;;;5086246;28;20028;-77
2021/06/01 07:27:11;;;;;;;8.40;4.95;;;486.70;2278.40;;;;;;5080073;28;20024;-77
2021/06/01 07:29:36;;;;;;;7.57;5.25;;;486.60;2304.00;;;;;;5081613;28;20082;-77
2021/06/01 07:32:02;;;;;;;11.80;6.00;;;486.50;2278.40;;;;;;5082903;28;20028;-77
2021/06/01 07:34:29;;;;;;;7.75;4.65;;;486.50;2278.40;;;;;;5081467;28;20033;-78
2021/06/01 07:36:55;;;;;;;13.05;5.28;;;486.40;2278.40;;;;;;5083752;28;20029;-77
2021/06/01 07:39:20;;;;;;;11.27;5.03;;;486.60;2278.40;;;;;;5080030;28;20447;-77
2021/06/01 07:41:46;;;;;;;12.05;4.88;;;487.00;2227.20;;;;;;5089508;28;20048;-77
2021/06/01 07:44:12;;;;;;;5.88;4.85;;;487.00;2227.20;;;;;;5083173;28;20024;-78
2021/06/01 07:46:38;;;;;;;7.93;5.78;;;487.10;2252.80;;;;;;5084715;28;20128;-77
2021/06/01 07:49:04;;;;;;;6.57;5.25;;;512.00;2201.60;;;;;;5080169;28;20103;-77
2021/06/01 07:51:31;;;;;;;18.90;6.53;;;512.30;2201.60;;;;;;5086755;28;20106;-77
2021/06/01 07:53:58;;;;;;;11.65;5.30;;;512.50;2124.80;;;;;;5084258;28;20078;-77
2021/06/01 07:56:25;;;;;;;7.13;5.60;;;512.30;2124.80;;;;;;5082295;28;20692;-77
2021/06/01 07:58:51;;;;;;;6.22;4.75;;;512.10;2150.40;;;;;;5081915;28;20021;-78
2021/06/01 08:01:17;;;;;;;6.90;4.75;;;512.20;2124.80;;;;;;5083536;28;20028;-78
2021/06/01 08:03:43;;;;;;;10.52;4.70;;;512.20;2124.80;;;;;;5077066;28;20035;-78
2021/06/01 08:06:10;;;;;;;9.93;5.30;;;512.60;2099.20;;;;;;5082975;28;20044;-78
2021/06/01 08:08:36;;;;;;;8.82;5.50;;;537.60;2073.60;;;;;;5080036;28;20028;-78
2021/06/01 08:11:03;;;;;;;7.80;5.10;;;537.60;2124.80;;;;;;5088452;28;20672;-78
2021/06/01 08:13:29;;;;;;;7.53;4.47;;;512.70;2073.60;;;;;;5073009;28;20024;-78
2021/06/01 08:15:56;;;;;;;7.45;4.35;;;512.50;2099.20;;;;;;5085738;28;20020;-78
2021/06/01 08:18:23;;;;;;;9.90;5.07;;;512.50;2048.00;;;;;;5081148;28;20024;-78
2021/06/01 08:21:04;;;;;;;10.77;5.25;;;512.30;2073.60;;;;;;5080016;28;20039;-78
2021/06/01 08:23:30;;;;;;;7.10;4.90;;;512.20;2099.20;;;;;;5083904;28;20522;-79
2021/06/01 08:25:56;;;;;;;11.85;5.03;;;512.50;2099.20;;;;;;5085122;28;20027;-78
2021/06/01 08:28:22;;;;;;;6.65;4.88;;;512.50;2099.20;;;;;;5083529;28;20115;-78
2021/06/01 08:30:48;;;;;;;11.18;5.30;;;512.50;2073.60;;;;;;5083407;28;20107;-78
2021/06/01 08:33:14;;;;;;;6.07;4.95;;;512.40;2073.60;;;;;;5081031;28;20391;-78
2021/06/01 08:35:40;;;;;;;10.48;5.75;;;512.50;2099.20;;;;;;5080501;28;20077;-79
2021/06/01 08:38:06;;;;;;;13.95;5.32;;;512.50;2099.20;;;;;;5084833;28;20082;-78
2021/06/01 08:40:32;;;;;;;6.20;4.55;;;512.50;2073.60;;;;;;5078588;28;20427;-78
2021/06/01 08:42:57;;;;;;;6.20;4.13;;;512.30;2073.60;;;;;;5084555;28;20032;-78
2021/06/01 08:45:23;;;;;;;10.30;5.35;;;512.50;2099.20;;;;;;5088367;28;20024;-78
2021/06/01 08:47:50;;;;;;;7.40;5.40;;;512.50;2099.20;;;;;;5084002;28;20028;-78
2021/06/01 08:50:17;;;;;;;7.25;4.38;;;512.70;2073.60;;;;;;5086120;28;20403;-77
2021/06/01 08:52:43;;;;;;;5.05;3.58;;;512.60;1996.80;;;;;;5088396;28;20032;-78
2021/06/01 08:55:11;;;;;;;6.15;4.07;;;512.70;1945.60;;;;;;5086224;28;20024;-78
2021/06/01 08:57:38;;;;;;;6.43;3.80;;;512.60;1996.80;;;;;;5087579;28;20090;-78
2021/06/01 09:00:06;;;;;;;6.18;3.88;;;512.70;1996.80;;;;;;5087931;28;20058;-78
2021/06/01 09:02:32;;;;;;;9.48;4.10;;;512.60;1996.80;;;;;;5081442;28;20032;-78
2021/06/01 09:05:04;;;;;;;8.48;4.55;;;512.90;1971.20;;;;;;5092822;28;20028;-77
2021/06/01 09:07:45;;;;;;;7.88;4.28;;;512.50;1996.80;;;;;;5086651;28;20032;-79
2021/06/01 09:21:36;;;;;;;8.57;4.05;;;512.60;1868.80;;;;;;5016486;28;20056;-77
2021/06/01 09:24:03;;;;;;;6.50;3.90;;;512.50;1894.40;;;;;;5018790;28;20025;-77
2021/06/01 09:26:57;;;;;;;10.75;4.15;;;512.60;1894.40;;;;;;5019637;28;20494;-77
2021/06/01 09:29:25;;;;;;;6.32;3.92;;;512.50;1894.40;;;;;;5020336;28;20030;-77
2021/06/01 09:32:11;;;;;;;8.30;4.03;;;512.50;1894.40;;;;;;4985687;28;20394;-78
2021/06/01 09:34:54;;;;;;;5.53;3.40;;;512.60;1868.80;;;;;;5014085;28;20018;-78
2021/06/01 09:37:23;;;;;;;10.55;3.35;;;512.60;1792.00;;;;;;5011879;28;20037;-78
2021/06/01 09:40:09;;;;;;;6.60;4.05;;;512.60;1843.20;;;;;;4994026;28;20124;-77
2021/06/01 09:42:36;;;;;;;7.07;3.53;;;512.70;1843.20;;;;;;5008902;28;20085;-78
2021/06/01 09:45:12;;;;;;;11.48;3.88;;;512.60;1843.20;;;;;;5001653;28;20560;-78
2021/06/01 09:47:51;;;;;;;8.68;4.07;;;512.60;1920.00;;;;;;5012722;28;20065;-77
2021/06/01 09:53:06;;;;;;;5.50;3.35;;;512.30;1868.80;;;;;;5083155;28;20058;-78
2021/06/01 09:55:35;;;;;;;8.77;3.85;;;512.30;1894.40;;;;;;5099503;28;20097;-78
2021/06/01 09:58:06;;;;;;;11.23;3.80;;;512.40;1868.80;;;;;;5081146;28;20036;-78
2021/06/01 10:00:36;;;;;;;8.70;3.85;;;537.90;1817.60;;;;;;5082608;28;20031;-78
2021/06/01 10:03:21;;;;;;;5.25;3.20;;;563.30;1792.00;;;;;;5085526;28;20032;-77
2021/06/01 10:05:53;;;;;;;6.30;2.78;;;563.40;1766.40;;;;;;5087500;28;20024;-78
2021/06/01 10:08:25;;;;;;;5.45;3.75;;;563.30;1766.40;;;;;;5083648;28;20028;-77
2021/06/01 10:10:56;;;;;;;4.90;3.40;;;563.20;1766.40;;;;;;5081064;28;20048;-78
2021/06/01 10:13:24;;;;;;;4.88;3.88;;;563.20;1766.40;;;;;;5087145;28;20066;-77
2021/06/01 10:15:55;;;;;;;4.90;3.00;;;538.40;1766.40;;;;;;5082419;28;20023;-77
2021/06/01 10:18:21;;;;;;;5.75;3.30;;;538.10;1817.60;;;;;;5081609;28;20546;-77
2021/06/01 10:20:49;;;;;;;5.80;4.07;;;537.90;1792.00;;;;;;5083300;28;20138;-81
2021/06/01 10:23:20;;;;;;;5.70;3.88;;;537.70;1792.00;;;;;;5087158;28;20091;-79
2021/06/01 10:25:47;;;;;;;5.55;4.30;;;537.80;1792.00;;;;;;5085157;28;20029;-78
2021/06/01 10:28:15;;;;;;;10.20;3.17;;;537.90;1817.60;;;;;;5082610;28;20077;-79
2021/06/01 10:30:41;;;;;;;4.80;3.15;;;538.00;1740.80;;;;;;5079457;28;20016;-78
2021/06/01 10:33:15;;;;;;;5.95;3.88;;;537.80;1715.20;;;;;;5083745;28;20074;-77
2021/06/01 10:35:51;;;;;;;5.70;3.33;;;537.90;1715.20;;;;;;5080236;28;20025;-80
2021/06/01 10:52:09;;;;;;;5.35;3.33;;;538.30;1664.00;;;;;;5019028;28;20788;-80
2021/06/01 10:57:07;;;;;;;8.32;4.03;;;563.20;1689.60;;;;;;5010639;28;20026;-82
2021/06/01 10:59:59;;;;;;;5.93;3.70;;;563.70;1612.80;;;;;;5013966;28;20073;-83
2021/06/01 11:02:26;;;;;;;5.35;3.17;;;563.60;1612.80;;;;;;5004489;28;20030;-83
2021/06/01 11:05:07;;;;;;;6.65;2.90;;;563.70;1587.20;;;;;;4998688;28;20391;-81
2021/06/01 11:07:52;;;;;;;6.22;3.22;;;563.80;1612.80;;;;;;5007010;28;20050;-79
2021/06/01 11:10:38;;;;;;;5.80;3.58;;;589.00;1587.20;;;;;;5010731;28;20042;-83
2021/06/01 11:13:06;;;;;;;4.65;3.22;;;589.50;1561.60;;;;;;5012270;28;20569;-81
2021/06/01 11:15:34;;;;;;;5.00;3.78;;;614.80;1484.80;;;;;;5018155;28;21033;-83
2021/06/01 11:18:24;;;;;;;6.75;3.17;;;615.00;1459.20;;;;;;5004159;28;20033;-81
2021/06/01 11:21:38;;;;;;;7.53;4.18;;;640.40;1408.00;;;;;;5015124;28;20029;-81
2021/06/01 11:32:53;;;;;;;7.55;3.97;;;717.40;1280.00;;;;;;5087371;28;20104;-82
2021/06/01 11:35:38;;;;;;;4.60;3.08;;;692.00;1203.20;;;;;;5084266;28;20563;-82
2021/06/01 11:40:54;;;;;;;7.28;3.58;;;640.20;1305.60;;;;;;5091223;28;20141;-82
2021/06/01 11:43:20;;;;;;;4.38;3.15;;;614.90;1356.80;;;;;;5087900;28;20094;-82
2021/06/01 11:45:49;;;;;;;5.13;3.33;;;614.90;1382.40;;;;;;5075061;28;20119;-83
2021/06/01 11:51:21;;;;;;;6.65;3.75;;;615.00;1382.40;;;;;;5098500;28;20053;-83
2021/06/01 11:54:06;;;;;;;6.75;3.33;;;640.00;1331.20;;;;;;5111788;28;20402;-82
2021/06/01 12:18:37;;;;;;;8.18;3.30;;;588.90;1510.40;;;;;;5087407;28;20396;-80
2021/06/01 12:21:10;;;;;;;8.93;3.17;;;589.40;1484.80;;;;;;5092548;28;20460;-80
2021/06/01 12:23:44;;;;;;;6.47;3.53;;;615.20;1356.80;;;;;;5092320;28;20031;-80
2021/06/01 12:26:34;;;;;;;4.65;3.58;;;615.00;1356.80;;;;;;5091574;28;20024;-82
2021/06/01 12:32:30;;;;;;;5.65;3.15;;;640.00;1356.80;;;;;;5089056;28;20039;-80
2021/06/01 13:08:55;;;;;;;4.40;2.53;;;640.30;1152.00;;;;;;4999240;28;20034;-82
2021/06/01 13:20:27;;;;;;;4.78;2.50;;;589.50;1254.40;;;;;;5051125;28;20456;-81
2021/06/01 13:40:00;;;;;;;4.72;2.35;;;564.10;1254.40;;;;;;5087942;28;20123;-82
2021/06/01 13:50:43;;;;;;;3.38;2.67;;;589.00;1228.80;;;;;;5088243;28;20058;-82
2021/06/01 13:55:07;;;;;;;2.92;1.70;;;589.40;1203.20;;;;;;5085873;28;20028;-83
2021/06/01 13:56:08;;;;;;;3.57;2.13;;;589.70;1152.00;;;;;;5089522;28;20032;-82
2021/06/01 14:36:42;;;;;;;4.55;2.33;;;589.00;1177.60;;;;;;4970777;28;20709;-83
2021/06/01 14:39:46;;;;;;;2.95;2.10;;;588.80;1203.20;;;;;;4962156;28;20160;-83
2021/06/01 15:04:29;;;;;;;5.10;3.00;;;589.30;1152.00;;;;;;5079990;28;20198;-82
2021/06/01 15:28:59;;;;;;;6.15;2.72;;;589.20;1126.40;;;;;;5083818;28;20081;-82
2021/06/01 15:31:34;;;;;;;5.88;2.08;;;588.90;1152.00;;;;;;5082467;28;20029;-81
2021/06/01 15:47:59;;;;;;;4.68;2.40;;;589.20;1075.20;;;;;;5090692;28;20035;-82
2021/06/01 15:50:35;;;;;;;6.97;1.88;;;589.20;1075.20;;;;;;5086357;28;20063;-81
2021/06/01 16:13:38;;;;;;;7.63;2.95;;;589.70;1100.80;;;;;;5081128;28;20048;-82
2021/06/01 16:21:55;;;;;;;18.58;2.50;;;614.40;1152.00;;;;;;5092239;28;20066;-83
2021/06/01 17:05:03;;;;;;;8.48;3.70;;;563.70;1177.60;;;;;;5032293;28;20056;-81
2021/06/01 17:07:56;;;;;;;5.95;2.95;;;563.60;1177.60;;;;;;5031588;28;20041;-81
2021/06/01 17:13:13;;;;;;;10.10;3.03;;;563.30;1203.20;;;;;;5090848;28;20035;-81
2021/06/01 17:15:40;;;;;;;2.55;1.70;;;563.20;1228.80;;;;;;5086332;28;20077;-81
2021/06/01 17:18:18;;;;;;;6.38;3.00;;;538.50;1203.20;;;;;;5087399;28;20020;-81
2021/06/01 17:36:54;;;;;;;5.82;3.72;;;512.90;1305.60;;;;;;5080031;28;20510;-82
2021/06/01 17:39:21;;;;;;;7.43;2.75;;;512.70;1331.20;;;;;;5090210;28;20028;-81
2021/06/01 17:41:51;;;;;;;3.90;2.72;;;512.60;1356.80;;;;;;5089247;28;20032;-79
2021/06/01 17:44:22;;;;;;;7.97;3.55;;;512.50;1382.40;;;;;;5078091;28;20035;-80
2021/06/01 17:46:49;;;;;;;10.10;4.22;;;512.40;1382.40;;;;;;5089987;28;20024;-81
2021/06/01 17:49:26;;;;;;;4.20;3.10;;;512.40;1408.00;;;;;;5083664;28;20114;-80